Time;durP1;ratioP1;P1;durP2;ratioP2;P2;SDS_P1;SDS_P2;PMS_P1;PMS_P2;Temp;Humidity;BMP_temperature;BMP_pressure;BME280_temperature;BME280_humidity;BME280_pressure;Samples;Min_cycle;Max_cycle;Signal;HPM_P1;HPM_P2
2023/06/15 00:00:18;;;;;;;4.03;3.17;;;13.50;61.00;;;;;;2097406;28;20204;-68
2023/06/15 00:01:19;;;;;;;5.30;3.50;;;13.50;61.30;;;;;;2089355;28;20271;-68
2023/06/15 00:02:19;;;;;;;4.22;3.42;;;13.50;61.20;;;;;;2096793;28;20323;-68
2023/06/15 00:03:21;;;;;;;4.83;3.47;;;13.50;61.10;;;;;;2104328;28;20238;-68
2023/06/15 00:04:21;;;;;;;4.78;3.75;;;13.40;61.50;;;;;;2101288;28;20215;-68
2023/06/15 00:05:22;;;;;;;4.37;3.47;;;13.50;61.70;;;;;;2096752;28;20408;-67
2023/06/15 00:06:24;;;;;;;4.20;3.77;;;13.40;61.80;;;;;;2103906;28;20295;-67
2023/06/15 00:07:25;;;;;;;4.63;3.97;;;13.40;62.20;;;;;;2104992;28;20720;-68
2023/06/15 00:08:26;;;;;;;5.43;3.83;;;13.40;62.30;;;;;;2096735;28;20223;-68
2023/06/15 00:09:27;;;;;;;4.87;3.90;;;13.40;62.70;;;;;;2105313;28;20495;-68
2023/06/15 00:10:29;;;;;;;4.07;3.57;;;13.30;62.80;;;;;;2101152;28;20261;-68
2023/06/15 00:11:29;;;;;;;4.15;3.72;;;13.30;62.80;;;;;;2102565;28;20774;-68
2023/06/15 00:12:35;;;;;;;4.60;3.80;;;13.40;62.50;;;;;;2105850;28;20234;-68
2023/06/15 00:13:36;;;;;;;5.93;3.38;;;13.40;62.40;;;;;;2105507;28;20305;-68
2023/06/15 00:14:37;;;;;;;3.80;3.50;;;13.40;62.30;;;;;;2113274;28;20255;-68
2023/06/15 00:15:39;;;;;;;5.72;3.78;;;13.40;62.30;;;;;;2109438;28;20237;-67
2023/06/15 00:16:41;;;;;;;4.07;3.67;;;13.40;62.50;;;;;;2102525;28;20709;-68
2023/06/15 00:17:43;;;;;;;5.88;3.47;;;13.40;62.50;;;;;;2096848;28;20694;-68
2023/06/15 00:18:54;;;;;;;4.53;3.92;;;13.40;62.80;;;;;;2101012;28;20246;-67
2023/06/15 00:20:00;;;;;;;3.80;3.40;;;13.40;63.10;;;;;;2105140;28;20237;-68
2023/06/15 00:21:02;;;;;;;4.15;3.70;;;13.40;63.50;;;;;;2092143;28;20306;-68
2023/06/15 00:22:04;;;;;;;4.75;4.15;;;13.40;63.50;;;;;;2097170;28;20186;-68
2023/06/15 00:23:08;;;;;;;4.20;3.65;;;13.30;63.40;;;;;;2103893;28;20269;-68
2023/06/15 00:24:09;;;;;;;6.03;3.60;;;13.40;63.40;;;;;;2104163;28;20183;-68
2023/06/15 00:25:10;;;;;;;4.60;3.92;;;13.40;63.00;;;;;;2104845;28;20657;-68
2023/06/15 00:26:11;;;;;;;4.28;3.30;;;13.50;63.20;;;;;;2104853;28;20620;-68
2023/06/15 00:27:12;;;;;;;4.30;3.90;;;13.50;63.30;;;;;;2088442;28;20192;-67
2023/06/15 00:28:13;;;;;;;5.07;3.97;;;13.50;63.50;;;;;;2098398;28;20262;-68
2023/06/15 00:29:14;;;;;;;4.80;3.63;;;13.40;63.80;;;;;;2111281;28;20187;-68
2023/06/15 00:30:15;;;;;;;3.83;3.53;;;13.30;64.10;;;;;;2102565;28;20704;-68
2023/06/15 00:31:16;;;;;;;5.93;3.83;;;13.40;65.30;;;;;;2102346;28;20649;-68
2023/06/15 00:32:17;;;;;;;4.73;3.70;;;13.40;64.10;;;;;;2084479;28;20188;-68
2023/06/15 00:33:18;;;;;;;4.40;4.00;;;13.40;63.90;;;;;;2093505;28;20195;-68
2023/06/15 00:34:18;;;;;;;6.37;4.00;;;13.40;63.40;;;;;;2109114;28;31028;-68
2023/06/15 00:35:19;;;;;;;4.10;3.67;;;13.40;62.80;;;;;;2100668;28;20269;-68
2023/06/15 00:36:21;;;;;;;4.70;3.40;;;13.40;63.70;;;;;;2105039;28;20253;-68
2023/06/15 00:37:22;;;;;;;4.60;3.53;;;13.40;62.20;;;;;;2101838;28;20231;-68
2023/06/15 00:38:23;;;;;;;3.88;3.50;;;13.40;62.10;;;;;;2102011;28;20223;-68
2023/06/15 00:39:25;;;;;;;4.30;3.73;;;13.40;62.10;;;;;;2101395;28;20230;-68
2023/06/15 00:40:26;;;;;;;5.13;3.97;;;13.30;63.50;;;;;;2104451;28;20233;-68
2023/06/15 00:41:27;;;;;;;4.28;3.70;;;13.20;66.00;;;;;;2096087;28;20231;-68
2023/06/15 00:42:29;;;;;;;4.82;3.78;;;13.20;65.30;;;;;;2096719;28;20219;-68
2023/06/15 00:43:32;;;;;;;4.70;3.47;;;13.20;65.80;;;;;;2096015;28;20231;-67
2023/06/15 00:44:33;;;;;;;5.50;4.13;;;13.20;66.30;;;;;;2095547;28;20701;-67
2023/06/15 00:45:34;;;;;;;4.28;3.88;;;13.10;66.20;;;;;;2096349;28;20227;-68
2023/06/15 00:46:36;;;;;;;4.37;3.80;;;13.10;66.10;;;;;;2094186;28;20231;-68
2023/06/15 00:47:39;;;;;;;4.55;3.90;;;13.20;66.60;;;;;;2087613;28;20232;-68
2023/06/15 00:48:40;;;;;;;6.10;4.03;;;13.20;66.00;;;;;;2088303;28;20706;-67
2023/06/15 00:49:41;;;;;;;5.22;3.78;;;13.20;65.80;;;;;;2094717;28;20397;-68
2023/06/15 00:50:42;;;;;;;5.03;3.88;;;13.10;65.80;;;;;;2105157;28;20230;-68
2023/06/15 00:51:43;;;;;;;5.33;4.07;;;13.20;65.30;;;;;;2103058;28;20258;-68
2023/06/15 00:52:46;;;;;;;7.15;4.72;;;13.20;65.80;;;;;;2101920;28;21000;-68
2023/06/15 00:53:47;;;;;;;4.80;3.92;;;13.10;66.10;;;;;;2101875;28;20226;-68
2023/06/15 00:54:50;;;;;;;5.68;4.15;;;13.10;66.30;;;;;;2101611;28;20352;-67
2023/06/15 00:55:52;;;;;;;3.95;3.45;;;13.10;66.10;;;;;;2101745;28;20712;-68
2023/06/15 00:56:53;;;;;;;5.53;3.83;;;13.10;65.50;;;;;;2102494;28;20299;-67
2023/06/15 00:57:56;;;;;;;4.88;4.38;;;13.20;65.00;;;;;;2096189;28;20231;-68
2023/06/15 00:58:57;;;;;;;4.25;3.63;;;13.10;64.80;;;;;;2101082;28;20615;-67
2023/06/15 00:59:58;;;;;;;5.75;4.03;;;13.10;65.10;;;;;;2095597;28;20314;-68
2023/06/15 01:00:59;;;;;;;4.00;3.60;;;13.10;65.50;;;;;;2096344;28;20227;-68
2023/06/15 01:02:00;;;;;;;4.13;3.60;;;13.00;65.50;;;;;;2094397;28;20593;-69
2023/06/15 01:03:07;;;;;;;4.67;4.17;;;12.90;65.60;;;;;;2104512;28;20209;-67
2023/06/15 01:04:09;;;;;;;4.13;3.47;;;13.00;65.50;;;;;;2105272;28;20190;-68
2023/06/15 01:05:10;;;;;;;6.63;4.00;;;12.90;65.50;;;;;;2106562;28;20167;-68
2023/06/15 01:06:16;;;;;;;5.13;4.45;;;13.00;65.60;;;;;;2104062;28;20183;-68
2023/06/15 01:07:20;;;;;;;5.13;3.78;;;13.00;65.50;;;;;;2104618;28;20269;-70
2023/06/15 01:08:23;;;;;;;6.75;4.13;;;12.90;65.50;;;;;;2097055;28;20842;-67
2023/06/15 01:09:26;;;;;;;4.95;3.85;;;12.90;65.70;;;;;;2095627;28;20257;-68
2023/06/15 01:10:30;;;;;;;4.03;3.50;;;12.90;65.60;;;;;;2102800;28;20222;-68
2023/06/15 01:11:34;;;;;;;5.22;3.97;;;12.90;65.90;;;;;;2086310;28;20792;-68
2023/06/15 01:12:40;;;;;;;5.20;4.10;;;12.70;66.50;;;;;;2089716;28;20792;-67
2023/06/15 01:13:43;;;;;;;6.60;3.65;;;12.70;66.50;;;;;;2101650;28;20225;-67
2023/06/15 01:14:44;;;;;;;4.00;3.53;;;12.80;66.30;;;;;;2095455;28;20227;-68
2023/06/15 01:15:46;;;;;;;3.53;3.22;;;12.70;67.50;;;;;;2100719;28;20219;-68
2023/06/15 01:16:52;;;;;;;4.43;3.70;;;12.70;66.40;;;;;;2103781;28;20225;-66
2023/06/15 01:17:58;;;;;;;6.18;4.20;;;12.70;67.70;;;;;;2095402;28;20225;-67
2023/06/15 01:19:01;;;;;;;4.30;3.78;;;12.60;66.90;;;;;;2093252;28;20307;-67
2023/06/15 01:20:06;;;;;;;5.05;3.97;;;12.50;67.00;;;;;;2107323;28;20225;-67
2023/06/15 01:21:08;;;;;;;6.07;4.03;;;12.60;67.30;;;;;;2103495;28;20179;-68
2023/06/15 01:22:58;;;;;;;4.55;4.15;;;12.50;67.30;;;;;;2103184;28;20669;-68
2023/06/15 01:24:24;;;;;;;5.80;3.65;;;12.50;68.20;;;;;;2063220;28;20276;-67
2023/06/15 01:25:45;;;;;;;4.40;3.78;;;12.40;68.60;;;;;;2082719;28;20250;-67
2023/06/15 01:26:51;;;;;;;4.30;3.63;;;12.40;68.90;;;;;;2087738;28;20273;-68
2023/06/15 01:28:01;;;;;;;5.45;4.10;;;12.30;69.10;;;;;;2094210;28;20680;-67
2023/06/15 01:29:03;;;;;;;4.68;4.28;;;12.40;69.30;;;;;;2103624;28;20294;-67
2023/06/15 01:30:06;;;;;;;4.10;3.70;;;12.30;69.20;;;;;;2104642;28;20191;-69
2023/06/15 01:31:10;;;;;;;4.35;3.80;;;12.40;69.20;;;;;;2096597;28;20192;-67
2023/06/15 01:32:11;;;;;;;4.53;3.85;;;12.40;69.00;;;;;;2092864;28;20184;-67
2023/06/15 01:33:12;;;;;;;5.32;4.10;;;12.40;69.10;;;;;;2097246;28;20292;-67
2023/06/15 01:34:13;;;;;;;6.67;4.03;;;12.40;69.00;;;;;;2096503;28;20198;-67
2023/06/15 01:35:13;;;;;;;4.00;3.60;;;12.40;68.80;;;;;;2096211;28;20270;-68
2023/06/15 01:36:15;;;;;;;4.53;3.43;;;12.30;70.10;;;;;;2104920;28;20554;-67
2023/06/15 01:37:18;;;;;;;5.47;3.88;;;12.40;69.10;;;;;;2094578;28;20192;-68
2023/06/15 01:38:25;;;;;;;4.75;4.00;;;12.30;69.10;;;;;;2098594;28;20203;-67
2023/06/15 01:39:27;;;;;;;4.30;3.90;;;12.20;69.30;;;;;;2093262;28;20716;-67
2023/06/15 01:40:31;;;;;;;6.35;4.05;;;12.10;69.70;;;;;;2094867;28;20291;-67
2023/06/15 01:41:33;;;;;;;4.50;4.10;;;12.10;70.00;;;;;;2102043;28;20215;-67
2023/06/15 01:42:35;;;;;;;4.25;3.85;;;12.10;70.20;;;;;;2104933;28;20236;-67
2023/06/15 01:43:38;;;;;;;5.68;4.00;;;12.20;70.20;;;;;;2083486;28;20231;-67
2023/06/15 01:44:41;;;;;;;4.35;3.95;;;12.10;70.10;;;;;;2093151;28;20311;-66
2023/06/15 01:45:45;;;;;;;4.80;4.10;;;12.10;70.90;;;;;;2101060;28;20226;-67
2023/06/15 01:46:46;;;;;;;5.95;4.43;;;12.10;71.20;;;;;;2104161;28;20299;-67
2023/06/15 01:47:51;;;;;;;4.75;4.25;;;12.00;71.30;;;;;;2104862;28;20227;-67
2023/06/15 01:48:56;;;;;;;4.97;3.83;;;12.00;71.40;;;;;;2104702;28;20217;-67
2023/06/15 01:49:58;;;;;;;5.03;4.30;;;12.00;71.10;;;;;;2095532;28;20223;-67
2023/06/15 01:51:00;;;;;;;5.50;4.25;;;12.00;71.10;;;;;;2088540;28;20227;-67
2023/06/15 01:52:01;;;;;;;5.35;4.32;;;12.00;71.10;;;;;;2084445;28;20231;-67
2023/06/15 01:53:02;;;;;;;5.00;4.50;;;12.10;71.00;;;;;;2095848;28;20298;-68
2023/06/15 01:54:03;;;;;;;4.30;3.90;;;12.10;71.00;;;;;;2104315;28;20191;-66
2023/06/15 01:55:07;;;;;;;4.83;4.00;;;12.00;70.90;;;;;;2093221;28;20212;-68
2023/06/15 01:56:07;;;;;;;4.93;4.00;;;12.00;71.10;;;;;;2104516;28;20209;-67
2023/06/15 01:57:08;;;;;;;4.10;3.70;;;12.00;70.90;;;;;;2104223;28;20193;-67
2023/06/15 01:58:15;;;;;;;4.90;4.10;;;12.00;71.00;;;;;;2087638;28;20303;-67
2023/06/15 01:59:15;;;;;;;4.97;4.38;;;11.90;71.30;;;;;;2094403;28;20592;-68
2023/06/15 02:00:18;;;;;;;3.93;3.53;;;12.00;71.30;;;;;;2096906;28;20191;-67
2023/06/15 02:01:18;;;;;;;4.65;3.88;;;12.00;71.00;;;;;;2096235;28;20198;-67
2023/06/15 02:02:22;;;;;;;6.20;4.23;;;12.00;71.50;;;;;;2103781;28;20733;-67
2023/06/15 02:03:22;;;;;;;4.32;3.90;;;11.90;71.60;;;;;;2103856;28;20233;-67
2023/06/15 02:04:24;;;;;;;4.80;4.40;;;11.80;71.60;;;;;;2110807;28;20236;-67
2023/06/15 02:05:25;;;;;;;4.28;3.83;;;11.80;72.10;;;;;;2104178;28;20229;-68
2023/06/15 02:06:26;;;;;;;4.43;4.00;;;11.80;72.30;;;;;;2101046;28;20569;-67
2023/06/15 02:07:26;;;;;;;4.93;3.57;;;11.80;72.30;;;;;;2104792;28;20234;-67
2023/06/15 02:08:27;;;;;;;3.80;3.50;;;11.80;72.10;;;;;;2104415;28;20704;-67
2023/06/15 02:09:29;;;;;;;5.13;4.07;;;11.80;72.40;;;;;;2096018;28;20215;-67
2023/06/15 02:10:29;;;;;;;5.78;3.95;;;11.60;72.50;;;;;;2095977;28;20902;-66
2023/06/15 02:11:30;;;;;;;5.57;4.47;;;11.70;72.70;;;;;;2104544;28;20234;-67
2023/06/15 02:12:32;;;;;;;4.40;4.00;;;11.60;72.70;;;;;;2104982;28;20642;-67
2023/06/15 02:13:33;;;;;;;5.18;4.40;;;11.70;73.20;;;;;;2101194;28;20643;-67
2023/06/15 02:14:34;;;;;;;5.67;4.30;;;11.70;73.10;;;;;;2100796;28;20217;-67
2023/06/15 02:15:36;;;;;;;4.63;4.13;;;11.70;73.10;;;;;;2104089;28;20232;-67
2023/06/15 02:16:38;;;;;;;5.00;4.47;;;11.60;72.90;;;;;;2109957;28;20222;-68
2023/06/15 02:17:39;;;;;;;5.82;4.30;;;11.70;73.00;;;;;;2108063;28;20236;-67
2023/06/15 02:18:45;;;;;;;5.47;3.97;;;11.70;73.10;;;;;;2104059;28;20233;-67
2023/06/15 02:19:46;;;;;;;4.80;4.20;;;11.80;73.20;;;;;;2089305;28;20231;-67
2023/06/15 02:20:48;;;;;;;5.57;4.78;;;11.70;73.40;;;;;;2086728;28;20235;-67
2023/06/15 02:21:50;;;;;;;5.60;4.03;;;11.70;73.30;;;;;;2104013;28;20277;-68
2023/06/15 02:22:52;;;;;;;5.97;3.90;;;11.70;73.20;;;;;;2096225;28;20230;-67
2023/06/15 02:23:54;;;;;;;5.20;4.28;;;11.60;73.30;;;;;;2095850;28;20315;-67
2023/06/15 02:24:55;;;;;;;6.97;4.18;;;11.60;73.60;;;;;;2091232;28;20721;-67
2023/06/15 02:25:56;;;;;;;5.07;4.33;;;11.70;73.40;;;;;;2100341;28;20230;-67
2023/06/15 02:26:57;;;;;;;6.55;4.43;;;11.70;73.10;;;;;;2100838;28;20242;-67
2023/06/15 02:27:59;;;;;;;5.50;4.80;;;11.60;73.10;;;;;;2100693;28;20220;-67
2023/06/15 02:29:00;;;;;;;6.13;4.20;;;11.60;73.50;;;;;;2094158;28;20226;-66
2023/06/15 02:30:01;;;;;;;4.63;4.13;;;11.60;73.70;;;;;;2095989;28;20200;-67
2023/06/15 02:31:01;;;;;;;6.33;4.67;;;11.50;73.90;;;;;;2099958;28;20252;-67
2023/06/15 02:32:02;;;;;;;6.03;4.03;;;11.50;74.10;;;;;;2103131;28;20217;-67
2023/06/15 02:33:05;;;;;;;4.30;3.90;;;11.50;73.90;;;;;;2110762;28;20193;-67
2023/06/15 02:34:06;;;;;;;4.47;4.07;;;11.50;73.60;;;;;;2112617;28;20201;-67
2023/06/15 02:35:11;;;;;;;5.22;4.40;;;11.50;73.90;;;;;;2112527;28;20193;-68
2023/06/15 02:36:19;;;;;;;4.65;4.15;;;11.50;74.10;;;;;;2103030;28;20187;-67
2023/06/15 02:37:20;;;;;;;5.63;3.88;;;11.40;74.00;;;;;;2101797;28;20343;-67
2023/06/15 02:38:20;;;;;;;4.87;4.37;;;11.30;74.50;;;;;;2101610;28;20233;-66
2023/06/15 02:39:22;;;;;;;4.60;4.10;;;11.30;75.00;;;;;;2101507;28;20254;-66
2023/06/15 02:40:24;;;;;;;8.23;4.70;;;11.30;75.20;;;;;;2104087;28;20234;-66
2023/06/15 02:41:25;;;;;;;4.82;3.80;;;11.30;75.70;;;;;;2103900;28;20229;-66
2023/06/15 02:42:26;;;;;;;7.03;4.30;;;11.20;75.80;;;;;;2103768;28;20822;-67
2023/06/15 02:43:27;;;;;;;4.00;3.60;;;11.20;76.00;;;;;;2111818;28;20232;-66
2023/06/15 02:44:31;;;;;;;4.50;3.90;;;11.20;76.10;;;;;;2104042;28;20298;-67
2023/06/15 02:45:31;;;;;;;6.80;4.20;;;11.10;76.60;;;;;;2101178;28;20588;-68
2023/06/15 02:46:32;;;;;;;5.07;4.57;;;11.00;76.80;;;;;;2103786;28;20238;-67
2023/06/15 02:47:35;;;;;;;5.23;4.47;;;11.00;77.00;;;;;;2103987;28;20246;-68
2023/06/15 02:48:35;;;;;;;5.03;4.53;;;11.10;77.10;;;;;;2101677;28;20242;-68
2023/06/15 02:49:36;;;;;;;4.57;4.10;;;11.10;76.70;;;;;;2098686;28;20269;-68
2023/06/15 02:50:37;;;;;;;5.70;4.43;;;11.00;77.10;;;;;;2096085;28;20246;-67
2023/06/15 02:51:37;;;;;;;6.37;4.00;;;11.10;77.10;;;;;;2087236;28;20235;-68
2023/06/15 02:52:45;;;;;;;5.10;4.23;;;11.10;76.90;;;;;;2098189;28;20233;-67
2023/06/15 02:53:47;;;;;;;5.43;4.70;;;11.10;76.90;;;;;;2100666;28;20791;-68
2023/06/15 02:54:47;;;;;;;5.15;4.45;;;11.10;77.20;;;;;;2090535;28;20231;-68
2023/06/15 02:55:48;;;;;;;4.83;3.90;;;11.10;77.60;;;;;;2085810;28;20256;-68
2023/06/15 02:56:51;;;;;;;5.90;4.40;;;11.00;78.00;;;;;;2104129;28;20269;-68
2023/06/15 02:57:53;;;;;;;9.15;5.43;;;11.00;78.00;;;;;;2087211;28;20234;-68
2023/06/15 02:58:55;;;;;;;5.07;4.45;;;10.90;78.50;;;;;;2088339;28;20223;-68
2023/06/15 02:59:56;;;;;;;6.43;4.30;;;10.90;79.30;;;;;;2095854;28;20230;-67
2023/06/15 03:00:57;;;;;;;7.00;4.80;;;10.80;79.80;;;;;;2103677;28;20281;-68
2023/06/15 03:01:58;;;;;;;6.68;4.50;;;10.80;80.00;;;;;;2103535;28;20240;-68
2023/06/15 03:02:58;;;;;;;6.37;4.83;;;10.80;79.60;;;;;;2103837;28;20225;-68
2023/06/15 03:03:59;;;;;;;7.00;4.80;;;10.80;79.70;;;;;;2094288;28;20322;-70
2023/06/15 03:05:00;;;;;;;4.80;4.13;;;10.80;80.30;;;;;;2095238;28;20668;-69
2023/06/15 03:06:00;;;;;;;6.23;4.47;;;10.80;80.20;;;;;;2104007;28;20181;-67
2023/06/15 03:07:03;;;;;;;8.07;4.73;;;10.80;79.90;;;;;;2104088;28;20202;-67
2023/06/15 03:08:04;;;;;;;5.32;4.28;;;10.80;79.90;;;;;;2104030;28;20267;-68
2023/06/15 03:09:07;;;;;;;5.97;4.43;;;10.90;79.70;;;;;;2104479;28;20186;-68
2023/06/15 03:10:09;;;;;;;5.10;4.40;;;10.90;79.70;;;;;;2103541;28;20283;-68
2023/06/15 03:11:10;;;;;;;5.32;4.50;;;10.90;79.30;;;;;;2095561;28;20186;-67
2023/06/15 03:12:12;;;;;;;5.30;4.32;;;11.00;79.30;;;;;;2095672;28;20182;-67
2023/06/15 03:13:13;;;;;;;5.32;4.38;;;11.00;79.40;;;;;;2095903;28;20269;-68
2023/06/15 03:14:14;;;;;;;7.10;4.30;;;11.00;79.50;;;;;;2094655;28;20189;-68
2023/06/15 03:15:16;;;;;;;4.43;3.97;;;11.00;79.40;;;;;;2096904;28;20185;-68
2023/06/15 03:16:18;;;;;;;5.57;4.50;;;11.00;79.10;;;;;;2104554;28;20191;-67
2023/06/15 03:17:21;;;;;;;6.82;4.57;;;11.00;79.10;;;;;;2102153;28;20295;-68
2023/06/15 03:18:22;;;;;;;4.85;4.28;;;10.90;79.10;;;;;;2087297;28;20226;-68
2023/06/15 03:19:22;;;;;;;4.40;3.90;;;11.00;78.90;;;;;;2087500;28;20255;-68
2023/06/15 03:20:24;;;;;;;4.40;4.00;;;11.00;78.90;;;;;;2093611;28;20236;-68
2023/06/15 03:21:25;;;;;;;5.95;4.50;;;10.90;79.10;;;;;;2100530;28;20222;-68
2023/06/15 03:22:26;;;;;;;6.70;4.47;;;11.00;79.00;;;;;;2095696;28;20761;-68
2023/06/15 03:23:27;;;;;;;6.13;4.70;;;10.90;79.10;;;;;;2104006;28;20227;-67
2023/06/15 03:24:30;;;;;;;5.13;4.65;;;10.90;79.30;;;;;;2104551;28;20219;-68
2023/06/15 03:25:30;;;;;;;4.55;3.75;;;11.00;79.20;;;;;;2112248;28;20245;-68
2023/06/15 03:26:33;;;;;;;8.37;4.03;;;11.00;78.70;;;;;;2103379;28;20944;-68
2023/06/15 03:27:34;;;;;;;6.18;4.72;;;10.90;79.00;;;;;;2095000;28;20229;-68
2023/06/15 03:28:38;;;;;;;5.03;4.35;;;10.90;79.00;;;;;;2091712;28;20252;-68
2023/06/15 03:29:39;;;;;;;4.35;3.80;;;10.90;79.00;;;;;;2088148;28;20219;-68
2023/06/15 03:30:40;;;;;;;4.97;4.32;;;10.90;79.30;;;;;;2095617;28;20249;-68
2023/06/15 03:31:41;;;;;;;5.28;4.15;;;10.90;79.40;;;;;;2104198;28;20228;-67
2023/06/15 03:32:42;;;;;;;5.70;4.33;;;10.90;79.20;;;;;;2102333;28;20218;-68
2023/06/15 03:33:44;;;;;;;5.63;4.60;;;10.90;79.00;;;;;;2101404;28;20230;-68
2023/06/15 03:34:45;;;;;;;6.47;4.63;;;10.90;79.00;;;;;;2094637;28;20335;-70
2023/06/15 03:35:47;;;;;;;4.23;3.80;;;11.00;79.10;;;;;;2100454;28;20369;-68
2023/06/15 03:36:51;;;;;;;5.85;4.80;;;11.00;78.80;;;;;;2102333;28;20637;-68
2023/06/15 03:37:52;;;;;;;5.07;4.38;;;11.00;78.90;;;;;;2105832;28;20222;-68
2023/06/15 03:38:54;;;;;;;5.27;4.03;;;10.90;79.10;;;;;;2103922;28;20230;-68
2023/06/15 03:39:54;;;;;;;5.53;4.40;;;11.00;79.10;;;;;;2104062;28;20229;-68
2023/06/15 03:40:55;;;;;;;5.23;4.33;;;11.00;79.10;;;;;;2095578;28;20246;-68
2023/06/15 03:41:57;;;;;;;5.30;4.30;;;11.00;78.70;;;;;;2102823;28;20221;-68
2023/06/15 03:42:58;;;;;;;4.55;4.15;;;11.10;78.50;;;;;;2103532;28;20286;-68
2023/06/15 03:43:59;;;;;;;4.63;4.13;;;11.00;78.30;;;;;;2102639;28;20225;-68
2023/06/15 03:45:00;;;;;;;5.80;4.20;;;11.10;78.30;;;;;;2084320;28;20335;-68
2023/06/15 03:46:01;;;;;;;5.82;4.63;;;11.10;78.20;;;;;;2092877;28;20194;-68
2023/06/15 03:47:02;;;;;;;5.33;4.23;;;11.00;78.40;;;;;;2103657;28;20362;-68
2023/06/15 03:48:03;;;;;;;6.10;5.07;;;11.00;78.20;;;;;;2095251;28;20215;-68
2023/06/15 03:49:05;;;;;;;6.57;4.80;;;11.00;78.10;;;;;;2100595;28;20235;-69
2023/06/15 03:50:07;;;;;;;5.47;4.80;;;11.00;79.00;;;;;;2104034;28;20187;-68
2023/06/15 03:51:07;;;;;;;5.20;4.50;;;11.00;80.10;;;;;;2103486;28;20563;-68
2023/06/15 03:52:08;;;;;;;6.67;4.40;;;10.90;80.60;;;;;;2100559;28;20218;-68
2023/06/15 03:53:11;;;;;;;4.83;4.37;;;10.80;80.90;;;;;;2092309;28;20633;-70
2023/06/15 03:54:12;;;;;;;5.90;4.47;;;10.80;80.70;;;;;;2107845;28;20222;-67
2023/06/15 03:55:13;;;;;;;5.93;4.67;;;10.80;80.80;;;;;;2106551;28;20191;-67
2023/06/15 03:56:13;;;;;;;7.78;4.20;;;10.80;80.90;;;;;;2103273;28;20237;-68
2023/06/15 03:57:14;;;;;;;4.70;4.20;;;10.90;80.40;;;;;;2102483;28;20255;-67
2023/06/15 03:58:17;;;;;;;5.97;4.40;;;10.90;80.50;;;;;;2102347;28;20293;-68
2023/06/15 03:59:18;;;;;;;5.55;4.38;;;11.00;79.90;;;;;;2102413;28;20186;-67
2023/06/15 04:00:20;;;;;;;4.43;3.80;;;11.00;79.30;;;;;;2101362;28;20720;-68
2023/06/15 04:01:22;;;;;;;6.10;4.10;;;11.10;78.90;;;;;;2095716;28;20230;-68
2023/06/15 04:02:23;;;;;;;6.78;4.57;;;11.10;78.70;;;;;;2103563;28;20226;-68
2023/06/15 04:03:24;;;;;;;4.80;4.40;;;11.20;78.60;;;;;;2103514;28;20229;-68
2023/06/15 04:04:24;;;;;;;5.00;4.10;;;11.20;78.40;;;;;;2095706;28;20226;-68
2023/06/15 04:05:25;;;;;;;4.73;4.10;;;11.20;78.20;;;;;;2097338;28;20215;-68
2023/06/15 04:06:26;;;;;;;4.50;4.10;;;11.20;77.90;;;;;;2101111;28;20225;-68
2023/06/15 04:07:28;;;;;;;7.17;5.00;;;11.10;78.30;;;;;;2105287;28;20249;-68
2023/06/15 04:08:29;;;;;;;5.00;4.07;;;11.10;78.70;;;;;;2105254;28;20218;-68
2023/06/15 04:09:30;;;;;;;7.63;3.92;;;11.20;78.80;;;;;;2105303;28;20223;-67
2023/06/15 04:10:32;;;;;;;5.20;4.17;;;11.20;78.30;;;;;;2104961;28;20218;-68
2023/06/15 04:11:32;;;;;;;5.38;4.40;;;11.20;78.30;;;;;;2104652;28;20249;-68
2023/06/15 04:12:33;;;;;;;4.83;4.07;;;11.20;79.50;;;;;;2104378;28;20225;-68
2023/06/15 04:13:35;;;;;;;5.17;3.80;;;11.20;78.30;;;;;;2111570;28;20257;-68
2023/06/15 04:14:36;;;;;;;4.45;4.05;;;11.30;78.60;;;;;;2111599;28;20222;-68
2023/06/15 04:15:37;;;;;;;5.18;4.07;;;11.30;78.40;;;;;;2102916;28;20292;-68
2023/06/15 04:16:38;;;;;;;5.07;4.27;;;11.30;78.30;;;;;;2095836;28;20225;-68
2023/06/15 04:17:39;;;;;;;4.93;3.87;;;11.40;78.10;;;;;;2102758;28;20225;-68
2023/06/15 04:18:41;;;;;;;6.23;4.20;;;11.50;78.00;;;;;;2108249;28;20796;-68
2023/06/15 04:19:42;;;;;;;6.18;4.50;;;11.50;78.00;;;;;;2102857;28;20230;-67
2023/06/15 04:20:43;;;;;;;5.67;4.60;;;11.50;77.50;;;;;;2096741;28;20310;-68
2023/06/15 04:21:47;;;;;;;4.70;4.22;;;11.60;77.00;;;;;;2104952;28;20343;-69
2023/06/15 04:22:48;;;;;;;4.55;4.00;;;11.60;76.90;;;;;;2113487;28;20233;-67
2023/06/15 04:23:50;;;;;;;6.13;4.10;;;11.60;76.50;;;;;;2095737;28;20227;-69
2023/06/15 04:24:51;;;;;;;5.68;4.55;;;11.70;76.00;;;;;;2097261;28;20627;-67
2023/06/15 04:25:53;;;;;;;5.40;4.10;;;11.60;75.90;;;;;;2095506;28;20361;-67
2023/06/15 04:26:57;;;;;;;5.32;4.38;;;11.60;75.90;;;;;;2106116;28;20246;-67
2023/06/15 04:27:58;;;;;;;5.45;4.53;;;11.70;75.90;;;;;;2104351;28;20226;-67
2023/06/15 04:29:00;;;;;;;6.68;4.03;;;11.60;75.70;;;;;;2102623;28;20215;-69
2023/06/15 04:30:01;;;;;;;6.22;4.43;;;11.60;76.00;;;;;;2097426;28;20661;-67
2023/06/15 04:31:17;;;;;;;4.68;4.22;;;11.80;76.80;;;;;;2096755;28;20183;-67
2023/06/15 04:32:18;;;;;;;4.65;4.15;;;11.80;76.60;;;;;;2102575;28;20181;-67
2023/06/15 04:33:19;;;;;;;5.87;4.50;;;11.80;77.30;;;;;;2105966;28;20234;-68
2023/06/15 04:34:30;;;;;;;4.63;4.18;;;11.80;77.60;;;;;;2101949;28;20229;-68
2023/06/15 04:35:31;;;;;;;5.57;4.40;;;11.70;79.20;;;;;;2092689;28;20567;-68
2023/06/15 04:36:34;;;;;;;5.90;4.10;;;11.70;78.30;;;;;;2097377;28;20229;-68
2023/06/15 04:37:39;;;;;;;6.45;3.92;;;11.70;78.30;;;;;;2105478;28;20250;-68
2023/06/15 04:38:46;;;;;;;5.55;4.22;;;11.80;77.80;;;;;;2104128;28;20223;-68
2023/06/15 04:39:49;;;;;;;5.18;4.40;;;11.90;77.50;;;;;;2104523;28;20210;-70
2023/06/15 04:40:52;;;;;;;4.60;4.20;;;12.00;76.60;;;;;;2114347;28;20225;-68
2023/06/15 04:41:54;;;;;;;4.88;4.10;;;12.10;77.00;;;;;;2119786;27;20221;-68
2023/06/15 04:42:57;;;;;;;5.05;4.55;;;12.20;75.90;;;;;;2105836;28;20298;-68
2023/06/15 04:43:58;;;;;;;4.72;4.25;;;12.20;75.90;;;;;;2105481;28;20253;-68
2023/06/15 04:44:59;;;;;;;4.55;3.75;;;12.20;75.70;;;;;;2104595;28;20294;-70
2023/06/15 04:46:00;;;;;;;4.77;4.27;;;12.20;75.50;;;;;;2105560;28;20174;-68
2023/06/15 04:47:04;;;;;;;5.38;4.50;;;12.30;74.90;;;;;;2100155;28;20186;-68
2023/06/15 04:48:05;;;;;;;5.05;4.50;;;12.30;74.50;;;;;;2096946;28;20230;-68
2023/06/15 04:49:06;;;;;;;5.35;4.25;;;12.40;74.80;;;;;;2093175;28;20184;-68
2023/06/15 04:50:13;;;;;;;5.97;4.47;;;12.40;74.50;;;;;;2095994;28;20215;-68
2023/06/15 04:51:15;;;;;;;6.13;4.60;;;12.50;74.40;;;;;;2097295;28;20293;-68
2023/06/15 04:52:15;;;;;;;5.00;4.50;;;12.50;74.40;;;;;;2105477;28;20411;-67
2023/06/15 04:53:18;;;;;;;4.97;4.47;;;12.50;74.30;;;;;;2105863;28;20191;-68
2023/06/15 04:54:19;;;;;;;4.95;4.10;;;12.50;75.30;;;;;;2096481;28;20459;-67
2023/06/15 04:55:19;;;;;;;7.67;4.53;;;12.50;75.40;;;;;;2090568;28;21000;-68
2023/06/15 04:56:21;;;;;;;7.30;4.30;;;12.40;75.60;;;;;;2096127;28;20219;-68
2023/06/15 04:57:23;;;;;;;4.70;4.28;;;12.50;76.00;;;;;;2105734;28;20297;-67
2023/06/15 04:58:23;;;;;;;5.53;4.07;;;12.50;75.50;;;;;;2102425;28;20233;-68
2023/06/15 04:59:26;;;;;;;4.20;3.80;;;12.60;74.80;;;;;;2104713;28;20214;-68
2023/06/15 05:00:27;;;;;;;5.28;4.00;;;12.60;74.30;;;;;;2097063;28;20227;-68
2023/06/15 05:01:28;;;;;;;4.67;4.10;;;12.70;74.10;;;;;;2094707;28;20226;-68
2023/06/15 05:02:28;;;;;;;5.70;4.20;;;12.70;73.10;;;;;;2105482;28;20314;-67
2023/06/15 05:03:30;;;;;;;5.57;4.33;;;12.80;73.10;;;;;;2101043;28;20238;-68
2023/06/15 05:04:30;;;;;;;4.85;3.97;;;12.80;72.70;;;;;;2100989;28;20239;-68
2023/06/15 05:05:31;;;;;;;6.00;4.77;;;12.80;72.50;;;;;;2096240;28;20238;-68
2023/06/15 05:06:32;;;;;;;5.32;4.32;;;12.80;73.20;;;;;;2087071;28;20288;-69
2023/06/15 05:07:33;;;;;;;7.10;4.30;;;12.80;73.50;;;;;;2095487;28;20247;-68
2023/06/15 05:08:35;;;;;;;5.13;4.00;;;12.80;73.20;;;;;;2104879;28;20250;-68
2023/06/15 05:09:35;;;;;;;5.00;4.30;;;12.80;73.30;;;;;;2104964;28;20251;-68
2023/06/15 05:10:38;;;;;;;5.90;4.50;;;12.80;73.00;;;;;;2105094;28;20223;-68
2023/06/15 05:11:38;;;;;;;5.50;4.50;;;12.90;73.00;;;;;;2100750;28;20215;-68
2023/06/15 05:12:39;;;;;;;5.10;4.30;;;12.90;73.20;;;;;;2096072;28;20290;-68
2023/06/15 05:13:40;;;;;;;5.80;4.70;;;12.90;72.70;;;;;;2101575;28;20223;-68
2023/06/15 05:14:41;;;;;;;5.50;4.60;;;12.90;71.90;;;;;;2102034;28;20700;-68
2023/06/15 05:15:42;;;;;;;4.72;4.07;;;13.00;72.50;;;;;;2101452;28;20228;-68
2023/06/15 05:16:44;;;;;;;6.47;4.83;;;12.90;72.80;;;;;;2104601;28;20287;-68
2023/06/15 05:17:44;;;;;;;5.10;4.60;;;12.90;72.80;;;;;;2102588;28;20231;-68
2023/06/15 05:18:46;;;;;;;5.17;4.63;;;12.80;73.50;;;;;;2103200;28;20233;-68
2023/06/15 05:19:47;;;;;;;5.88;5.28;;;12.90;73.40;;;;;;2104587;28;20762;-68
2023/06/15 05:20:48;;;;;;;5.00;4.50;;;12.90;72.70;;;;;;2105442;28;20230;-67
2023/06/15 05:21:50;;;;;;;5.82;5.05;;;12.90;72.80;;;;;;2103454;28;20636;-69
2023/06/15 05:22:51;;;;;;;6.75;4.30;;;13.00;72.80;;;;;;2103378;28;20238;-67
2023/06/15 05:23:52;;;;;;;6.07;4.63;;;13.00;72.80;;;;;;2102499;28;20251;-68